createdAt,value
2023-01-17T00:01:18.461Z,17.34
2023-01-17T00:04:03.336Z,17.35
2023-01-17T00:06:48.422Z,17.34
2023-01-17T00:09:33.748Z,17.32
2023-01-17T00:12:02.136Z,17.33
2023-01-17T00:14:28.770Z,17.32
2023-01-17T00:16:55.333Z,17.26
2023-01-17T00:19:40.433Z,17.28
2023-01-17T00:22:30.013Z,17.28
2023-01-17T00:25:14.699Z,17.25
2023-01-17T00:27:41.455Z,17.23
2023-01-17T00:30:08.735Z,17.21
2023-01-17T00:32:35.158Z,17.22
2023-01-17T00:35:01.578Z,17.21
2023-01-17T00:37:28.069Z,17.23
2023-01-17T00:39:54.549Z,17.22
2023-01-17T00:42:21.008Z,17.19
2023-01-17T00:45:05.842Z,17.21
2023-01-17T00:47:52.675Z,17.21
2023-01-17T00:50:37.924Z,17.18
2023-01-17T00:53:23.760Z,17.18
2023-01-17T00:56:09.045Z,17.15
2023-01-17T00:58:54.017Z,17.19
2023-01-17T01:01:39.218Z,17.14
2023-01-17T01:04:24.553Z,17.16
2023-01-17T01:07:09.638Z,17.14
2023-01-17T01:09:54.466Z,17.12
2023-01-17T01:12:39.337Z,17.13
2023-01-17T01:15:25.226Z,17.09
2023-01-17T01:18:10.151Z,17.12
2023-01-17T01:20:54.991Z,17.12
2023-01-17T01:23:39.835Z,17.12
2023-01-17T01:26:24.666Z,17.09
2023-01-17T01:29:09.671Z,17.09
2023-01-17T01:31:54.758Z,17.07
2023-01-17T01:34:21.368Z,17.07
2023-01-17T01:36:47.916Z,17.06
2023-01-17T01:39:14.553Z,17.08
2023-01-17T01:41:41.513Z,17.07
2023-01-17T01:45:03.203Z,17.06
2023-01-17T01:47:38.560Z,17.08
2023-01-17T01:50:08.375Z,17.06
2023-01-17T01:52:39.998Z,17.05
2023-01-17T01:55:14.090Z,17.02
2023-01-17T01:57:44.194Z,17.03
2023-01-17T02:00:24.978Z,17.05
2023-01-17T02:02:53.347Z,17.05
2023-01-17T02:05:22.456Z,17.00
2023-01-17T02:08:10.633Z,17.02
2023-01-17T02:10:39.939Z,17.03
2023-01-17T02:13:07.690Z,17.01
2023-01-17T02:15:48.392Z,17.00
2023-01-17T02:18:30.056Z,17.00
2023-01-17T02:21:11.804Z,16.99
2023-01-17T02:24:02.943Z,16.98
2023-01-17T02:26:45.622Z,17.00
2023-01-17T02:29:49.471Z,16.99
2023-01-17T02:32:34.050Z,16.96
2023-01-17T02:35:06.818Z,16.96
2023-01-17T02:38:03.966Z,16.95
2023-01-17T02:40:43.136Z,16.95
2023-01-17T02:43:14.508Z,16.94
2023-01-17T02:45:41.577Z,16.98
2023-01-17T02:48:12.311Z,16.99
2023-01-17T02:50:56.801Z,16.98
2023-01-17T02:53:35.413Z,16.98
2023-01-17T02:56:16.879Z,16.96
2023-01-17T02:58:49.587Z,16.96
2023-01-17T03:02:05.007Z,16.95
2023-01-17T03:04:42.002Z,16.94
2023-01-17T03:07:16.424Z,16.92
2023-01-17T03:09:45.874Z,16.94
2023-01-17T03:12:13.187Z,16.93
2023-01-17T03:14:39.832Z,16.93
2023-01-17T03:17:06.551Z,16.92
2023-01-17T03:19:33.647Z,16.90
2023-01-17T03:22:00.137Z,16.92
2023-01-17T03:24:26.665Z,16.90
2023-01-17T03:26:53.259Z,16.92
2023-01-17T03:29:19.768Z,16.88
2023-01-17T03:31:46.691Z,16.89
2023-01-17T03:34:13.189Z,16.89
2023-01-17T03:36:39.673Z,16.92
2023-01-17T03:39:06.373Z,16.90
2023-01-17T03:41:32.928Z,16.92
2023-01-17T03:43:59.569Z,16.90
2023-01-17T03:46:28.642Z,16.90
2023-01-17T03:48:55.222Z,16.86
2023-01-17T03:51:22.270Z,16.88
2023-01-17T03:53:50.020Z,16.90
2023-01-17T03:56:16.577Z,16.90
2023-01-17T03:58:43.181Z,16.90
2023-01-17T04:01:09.893Z,16.87
2023-01-17T04:03:36.479Z,16.86
2023-01-17T04:06:03.060Z,16.84
2023-01-17T04:08:30.570Z,16.87
2023-01-17T04:10:57.184Z,16.90
2023-01-17T04:13:24.325Z,16.88
2023-01-17T04:15:51.572Z,16.88
2023-01-17T04:18:20.490Z,16.90
2023-01-17T04:20:47.599Z,16.93
2023-01-17T04:23:14.208Z,16.94
2023-01-17T04:25:40.731Z,16.96
2023-01-17T04:28:07.368Z,16.98
2023-01-17T04:30:34.189Z,17.02
2023-01-17T04:33:01.061Z,17.04
2023-01-17T04:35:30.217Z,17.06
2023-01-17T04:37:56.954Z,17.05
2023-01-17T04:40:23.845Z,17.08
2023-01-17T04:42:51.367Z,17.08
2023-01-17T04:45:17.928Z,17.10
2023-01-17T04:47:44.520Z,17.13
2023-01-17T04:50:11.547Z,17.13
2023-01-17T04:52:38.139Z,17.14
2023-01-17T04:55:05.809Z,17.15
2023-01-17T04:57:32.352Z,17.15
2023-01-17T04:59:59.011Z,17.18
2023-01-17T05:02:25.638Z,17.19
2023-01-17T05:04:52.848Z,17.22
2023-01-17T05:07:19.354Z,17.23
2023-01-17T05:09:45.864Z,17.23
2023-01-17T05:12:12.468Z,17.24
2023-01-17T05:14:38.937Z,17.25
2023-01-17T05:17:05.449Z,17.26
2023-01-17T05:19:32.041Z,17.27
2023-01-17T05:22:04.018Z,17.28
2023-01-17T05:24:31.462Z,17.27
2023-01-17T05:27:03.182Z,17.26
2023-01-17T05:29:30.833Z,17.26
2023-01-17T05:31:58.207Z,17.24
2023-01-17T05:34:25.102Z,17.26
2023-01-17T05:36:51.988Z,17.27
2023-01-17T05:39:18.824Z,17.26
2023-01-17T05:41:45.403Z,17.27
2023-01-17T05:44:11.976Z,17.34
2023-01-17T05:46:38.632Z,17.36
2023-01-17T05:49:05.548Z,17.36
2023-01-17T05:51:32.492Z,17.38
2023-01-17T05:53:59.450Z,17.41
2023-01-17T05:56:26.042Z,17.50
2023-01-17T05:58:52.537Z,17.53
2023-01-17T06:01:19.585Z,17.52
2023-01-17T06:03:46.208Z,17.52
2023-01-17T06:06:12.947Z,17.48
2023-01-17T06:08:39.475Z,17.46
2023-01-17T06:11:06.191Z,17.45
2023-01-17T06:13:32.908Z,17.46
2023-01-17T06:16:03.934Z,17.46
2023-01-17T06:18:31.976Z,17.45
2023-01-17T06:20:58.672Z,17.45
2023-01-17T06:23:25.548Z,17.46
2023-01-17T06:25:52.628Z,17.44
2023-01-17T06:28:21.824Z,17.45
2023-01-17T06:30:48.566Z,17.45
2023-01-17T06:33:15.604Z,17.44
2023-01-17T06:35:49.697Z,17.46
2023-01-17T06:38:16.664Z,17.45
2023-01-17T06:40:43.345Z,17.46
2023-01-17T06:43:09.990Z,17.45
2023-01-17T06:45:36.806Z,17.45
2023-01-17T06:48:05.256Z,17.47
2023-01-17T06:50:33.219Z,17.46
2023-01-17T06:53:02.720Z,17.48
2023-01-17T06:55:30.357Z,17.52
2023-01-17T06:57:59.470Z,17.56
2023-01-17T07:00:27.547Z,17.57
2023-01-17T07:02:54.908Z,17.57
2023-01-17T07:05:21.841Z,17.58
2023-01-17T07:07:48.673Z,17.57
2023-01-17T07:10:15.755Z,17.57
2023-01-17T07:12:42.790Z,17.57
2023-01-17T07:15:10.194Z,17.56
2023-01-17T07:17:36.795Z,17.57
2023-01-17T07:20:04.107Z,17.59
2023-01-17T07:22:30.723Z,17.58
2023-01-17T07:24:58.620Z,17.59
2023-01-17T07:27:27.841Z,17.59
2023-01-17T07:29:54.544Z,17.61
2023-01-17T07:32:21.106Z,17.64
2023-01-17T07:34:48.021Z,17.68
2023-01-17T07:37:15.439Z,17.65
2023-01-17T07:39:42.406Z,17.64
2023-01-17T07:42:09.300Z,17.64
2023-01-17T07:44:36.235Z,17.60
2023-01-17T07:47:04.480Z,17.59
2023-01-17T07:49:30.948Z,17.59
2023-01-17T07:51:57.462Z,17.57
2023-01-17T07:54:24.045Z,17.53
2023-01-17T07:56:50.594Z,17.49
2023-01-17T07:59:18.111Z,17.46
2023-01-17T08:01:44.823Z,17.45
2023-01-17T08:04:11.662Z,17.44
2023-01-17T08:06:42.186Z,17.42
2023-01-17T08:09:08.743Z,17.43
2023-01-17T08:11:35.673Z,17.43
2023-01-17T08:14:02.503Z,17.41
2023-01-17T08:16:29.753Z,17.41
2023-01-17T08:18:56.900Z,17.39
2023-01-17T08:21:24.454Z,17.39
2023-01-17T08:23:52.548Z,17.37
2023-01-17T08:26:23.944Z,17.40
2023-01-17T08:29:00.742Z,17.40
2023-01-17T08:31:28.682Z,17.37
2023-01-17T08:33:56.904Z,17.35
2023-01-17T08:36:25.717Z,17.36
2023-01-17T08:38:52.903Z,17.35
2023-01-17T08:41:21.097Z,17.34
2023-01-17T08:43:48.982Z,17.33
2023-01-17T08:46:15.821Z,17.31
2023-01-17T08:48:42.405Z,17.29
2023-01-17T08:51:09.836Z,17.28
2023-01-17T08:53:36.346Z,17.27
2023-01-17T08:56:05.266Z,17.28
2023-01-17T08:58:32.860Z,17.27
2023-01-17T09:01:03.937Z,17.23
2023-01-17T09:03:32.015Z,17.25
2023-01-17T09:06:16.587Z,17.22
2023-01-17T09:08:47.050Z,17.22
2023-01-17T09:11:17.863Z,17.22
2023-01-17T09:13:44.802Z,17.20
2023-01-17T09:16:11.477Z,17.19
2023-01-17T09:18:38.105Z,17.18
2023-01-17T09:21:16.851Z,17.16
2023-01-17T09:23:44.364Z,17.15
2023-01-17T09:26:24.525Z,17.17
2023-01-17T09:28:52.057Z,17.16
2023-01-17T09:31:21.034Z,17.18
2023-01-17T09:33:48.528Z,17.17
2023-01-17T09:36:15.254Z,17.15
2023-01-17T09:38:42.569Z,17.16
2023-01-17T09:41:36.865Z,17.19
2023-01-17T09:44:38.151Z,17.20
2023-01-17T09:47:12.984Z,17.18
2023-01-17T09:49:43.193Z,17.16
2023-01-17T09:52:16.506Z,17.19
2023-01-17T09:54:46.212Z,17.20
2023-01-17T09:57:24.887Z,17.22
2023-01-17T10:00:13.354Z,17.22
2023-01-17T10:03:17.082Z,17.21
2023-01-17T10:05:55.629Z,17.22
2023-01-17T10:08:42.519Z,17.24
2023-01-17T10:11:30.671Z,17.25
2023-01-17T10:14:27.965Z,17.25
2023-01-17T10:17:16.344Z,17.24
2023-01-17T10:20:07.825Z,17.24
2023-01-17T10:23:03.859Z,17.20
2023-01-17T10:25:50.403Z,17.20
2023-01-17T10:28:19.562Z,17.19
2023-01-17T10:30:49.917Z,17.19
2023-01-17T10:33:28.891Z,17.19
2023-01-17T10:36:09.055Z,17.17
2023-01-17T10:38:38.606Z,17.18
2023-01-17T10:41:10.891Z,17.21
2023-01-17T10:43:40.435Z,17.20
2023-01-17T10:46:16.748Z,17.20
2023-01-17T10:48:46.771Z,17.17
2023-01-17T10:51:31.866Z,17.15
2023-01-17T10:54:04.605Z,17.15
2023-01-17T10:56:32.611Z,17.13
2023-01-17T10:59:27.579Z,17.10
2023-01-17T11:01:53.997Z,17.11
2023-01-17T11:04:32.953Z,17.12
2023-01-17T11:07:13.199Z,17.14
2023-01-17T11:09:47.863Z,17.13
2023-01-17T11:12:32.428Z,17.15
2023-01-17T11:15:01.845Z,17.17
2023-01-17T11:17:29.643Z,17.15
2023-01-17T11:20:22.808Z,17.10
2023-01-17T11:23:04.714Z,17.10
2023-01-17T11:25:36.066Z,17.09
2023-01-17T11:28:30.722Z,17.06
2023-01-17T11:30:58.656Z,17.05
2023-01-17T11:33:45.692Z,17.05
2023-01-17T11:36:27.396Z,17.03
2023-01-17T11:38:56.677Z,16.99
2023-01-17T11:41:25.192Z,16.95
2023-01-17T11:43:55.132Z,16.95
2023-01-17T11:46:21.896Z,16.96
2023-01-17T11:48:56.157Z,16.99
2023-01-17T11:51:33.629Z,16.99
2023-01-17T11:54:26.040Z,16.97
2023-01-17T11:57:01.084Z,16.97
2023-01-17T11:59:34.695Z,16.98
2023-01-17T12:02:31.973Z,16.98
2023-01-17T12:05:09.500Z,16.98
2023-01-17T12:07:54.140Z,16.99
2023-01-17T12:10:43.448Z,17.00
2023-01-17T12:13:35.075Z,16.98
2023-01-17T12:16:31.275Z,16.98
2023-01-17T12:19:53.615Z,16.99
2023-01-17T12:22:26.938Z,16.98
2023-01-17T12:25:26.758Z,16.97
2023-01-17T12:28:00.447Z,16.96
2023-01-17T12:30:46.940Z,16.96
2023-01-17T12:33:21.977Z,16.99
2023-01-17T12:35:55.219Z,16.97
2023-01-17T12:38:36.043Z,16.94
2023-01-17T12:41:10.254Z,16.95
2023-01-17T12:43:40.865Z,16.94
2023-01-17T12:46:24.550Z,16.94
2023-01-17T12:48:56.099Z,16.92
2023-01-17T12:51:30.363Z,16.92
2023-01-17T12:54:15.752Z,16.91
2023-01-17T12:56:51.460Z,16.87
2023-01-17T12:59:42.783Z,16.87
2023-01-17T13:02:47.516Z,16.87
2023-01-17T13:05:23.652Z,16.87
2023-01-17T13:08:03.025Z,16.85
2023-01-17T13:10:43.424Z,16.80
2023-01-17T13:13:25.679Z,16.82
2023-01-17T13:16:02.441Z,16.82
2023-01-17T13:18:29.990Z,16.84
2023-01-17T13:21:06.085Z,16.86
2023-01-17T13:23:54.199Z,16.86
2023-01-17T13:26:55.109Z,16.89
2023-01-17T13:29:46.358Z,16.91
2023-01-17T13:32:27.805Z,16.92
2023-01-17T13:35:03.497Z,16.95
2023-01-17T13:37:38.470Z,16.95
2023-01-17T13:40:18.534Z,16.93
2023-01-17T13:42:57.541Z,16.90
2023-01-17T13:45:28.543Z,16.92
2023-01-17T13:48:14.623Z,16.92
2023-01-17T13:50:41.121Z,16.91
2023-01-17T13:53:35.665Z,16.93
2023-01-17T13:56:12.024Z,16.93
2023-01-17T13:58:51.829Z,16.93
2023-01-17T14:01:24.197Z,16.92
2023-01-17T14:03:54.069Z,16.90
2023-01-17T14:06:33.169Z,16.88
2023-01-17T14:09:02.763Z,16.88
2023-01-17T14:11:33.776Z,16.89
2023-01-17T14:14:35.049Z,16.91
2023-01-17T14:17:23.115Z,16.90
2023-01-17T14:19:56.137Z,16.89
2023-01-17T14:22:29.157Z,16.89
2023-01-17T14:25:01.360Z,16.87
2023-01-17T14:27:30.622Z,16.87
2023-01-17T14:29:59.178Z,16.85
2023-01-17T14:32:35.571Z,16.82
2023-01-17T14:35:04.192Z,16.81
2023-01-17T14:37:33.370Z,16.82
2023-01-17T14:40:00.723Z,16.80
2023-01-17T14:42:30.574Z,16.78
2023-01-17T14:45:08.946Z,16.77
2023-01-17T14:47:41.567Z,16.74
2023-01-17T14:50:21.560Z,16.75
2023-01-17T14:52:48.791Z,16.76
2023-01-17T14:55:20.463Z,16.77
2023-01-17T14:57:57.546Z,16.76
2023-01-17T15:00:25.430Z,16.75
2023-01-17T15:02:53.770Z,16.75
2023-01-17T15:05:23.512Z,16.74
2023-01-17T15:07:53.696Z,16.71
2023-01-17T15:10:31.994Z,16.71
2023-01-17T15:13:07.679Z,16.70
2023-01-17T15:15:38.988Z,16.67
2023-01-17T15:18:18.127Z,16.72
2023-01-17T15:21:07.559Z,16.70
2023-01-17T15:23:40.611Z,16.69
2023-01-17T15:26:11.293Z,16.71
2023-01-17T15:28:38.080Z,16.71
2023-01-17T15:31:08.860Z,16.80
2023-01-17T15:33:38.383Z,16.77
2023-01-17T15:36:27.442Z,16.80
2023-01-17T15:39:00.411Z,16.78
2023-01-17T15:41:39.637Z,16.80
2023-01-17T15:44:08.240Z,16.78
2023-01-17T15:46:45.605Z,16.80
2023-01-17T15:49:24.929Z,16.79
2023-01-17T15:52:08.784Z,16.81
2023-01-17T15:54:55.531Z,16.79
2023-01-17T15:57:38.923Z,16.82
2023-01-17T16:00:07.030Z,16.81
2023-01-17T16:02:36.353Z,16.80
2023-01-17T16:05:23.514Z,16.82
2023-01-17T16:08:02.441Z,16.82
2023-01-17T16:10:31.881Z,16.84
2023-01-17T16:12:59.470Z,16.83
2023-01-17T16:15:27.918Z,16.84
2023-01-17T16:18:08.216Z,16.87
2023-01-17T16:20:42.718Z,16.85
2023-01-17T16:23:12.594Z,16.87
2023-01-17T16:25:39.395Z,16.89
2023-01-17T16:28:06.519Z,16.87
2023-01-17T16:30:33.819Z,16.86
2023-01-17T16:33:01.314Z,16.87
2023-01-17T16:35:30.301Z,16.90
2023-01-17T16:38:02.581Z,16.91
2023-01-17T16:40:32.263Z,16.95
2023-01-17T16:43:00.362Z,16.98
2023-01-17T16:45:27.424Z,17.00
2023-01-17T16:47:54.757Z,16.95
2023-01-17T16:50:24.295Z,16.95
2023-01-17T16:52:54.740Z,16.95
2023-01-17T16:55:23.717Z,16.94
2023-01-17T16:57:51.315Z,16.94
2023-01-17T17:00:18.461Z,16.92
2023-01-17T17:02:45.037Z,17.04
2023-01-17T17:05:11.894Z,17.10
2023-01-17T17:07:46.277Z,17.10
2023-01-17T17:10:14.512Z,17.14
2023-01-17T17:12:41.478Z,17.08
2023-01-17T17:15:08.815Z,17.01
2023-01-17T17:17:36.890Z,16.98
2023-01-17T17:20:04.919Z,16.96
2023-01-17T17:22:31.711Z,16.95
2023-01-17T17:24:58.422Z,16.96
2023-01-17T17:27:27.655Z,16.96
2023-01-17T17:29:54.782Z,17.04
2023-01-17T17:32:21.682Z,17.09
2023-01-17T17:34:50.569Z,17.19
2023-01-17T17:37:17.341Z,17.31
2023-01-17T17:39:44.594Z,17.24
2023-01-17T17:42:11.620Z,17.21
2023-01-17T17:44:38.232Z,17.19
2023-01-17T17:47:05.103Z,17.24
2023-01-17T17:49:31.677Z,17.35
2023-01-17T17:52:06.302Z,17.47
2023-01-17T17:54:33.151Z,17.45
2023-01-17T17:56:59.903Z,17.41
2023-01-17T17:59:26.568Z,17.46
2023-01-17T18:01:53.263Z,17.40
2023-01-17T18:04:20.144Z,17.40
2023-01-17T18:06:46.623Z,17.52
2023-01-17T18:09:13.772Z,17.53
2023-01-17T18:11:42.108Z,17.58
2023-01-17T18:14:10.995Z,17.60
2023-01-17T18:16:41.813Z,17.66
2023-01-17T18:19:20.690Z,17.68
2023-01-17T18:21:48.722Z,17.75
2023-01-17T18:24:16.812Z,17.77
2023-01-17T18:26:57.584Z,17.81
2023-01-17T18:29:25.321Z,17.84
2023-01-17T18:31:53.116Z,17.82
2023-01-17T18:34:27.094Z,17.86
2023-01-17T18:36:54.247Z,17.83
2023-01-17T18:39:26.287Z,17.79
2023-01-17T18:41:54.066Z,17.78
2023-01-17T18:44:22.389Z,17.75
2023-01-17T18:46:50.343Z,17.69
2023-01-17T18:49:19.188Z,17.65
2023-01-17T18:51:50.292Z,17.65
2023-01-17T18:54:17.807Z,17.65
2023-01-17T18:56:44.521Z,17.65
2023-01-17T18:59:13.300Z,17.64
2023-01-17T19:01:44.451Z,17.64
2023-01-17T19:04:13.052Z,17.64
2023-01-17T19:06:42.297Z,17.76
2023-01-17T19:09:10.538Z,17.82
2023-01-17T19:11:37.106Z,17.89
2023-01-17T19:14:04.299Z,17.96
2023-01-17T19:16:35.000Z,17.96
2023-01-17T19:19:05.222Z,17.95
2023-01-17T19:21:31.736Z,17.99
2023-01-17T19:23:58.476Z,18.00
2023-01-17T19:26:27.334Z,18.01
2023-01-17T19:29:03.766Z,18.01
2023-01-17T19:31:32.055Z,18.03
2023-01-17T19:34:00.308Z,18.03
2023-01-17T19:36:33.765Z,18.01
2023-01-17T19:39:05.619Z,18.01
2023-01-17T19:41:36.896Z,18.00
2023-01-17T19:44:08.843Z,18.02
2023-01-17T19:46:36.286Z,18.01
2023-01-17T19:49:04.461Z,18.00
2023-01-17T19:51:31.060Z,17.99
2023-01-17T19:54:01.889Z,18.02
2023-01-17T19:56:29.907Z,17.97
2023-01-17T19:59:00.893Z,17.91
2023-01-17T20:01:30.453Z,17.88
2023-01-17T20:03:58.432Z,17.86
2023-01-17T20:06:28.795Z,17.84
2023-01-17T20:08:55.856Z,17.83
2023-01-17T20:11:24.188Z,17.82
2023-01-17T20:13:57.035Z,17.80
2023-01-17T20:16:25.325Z,17.81
2023-01-17T20:18:52.063Z,17.85
2023-01-17T20:21:23.773Z,17.86
2023-01-17T20:23:51.391Z,17.85
2023-01-17T20:26:25.020Z,17.83
2023-01-17T20:28:52.266Z,17.82
2023-01-17T20:31:22.142Z,17.82
2023-01-17T20:33:51.015Z,17.84
2023-01-17T20:36:21.272Z,17.83
2023-01-17T20:38:48.973Z,17.84
2023-01-17T20:41:34.903Z,17.85
2023-01-17T20:44:03.634Z,17.79
2023-01-17T20:46:35.522Z,17.76
2023-01-17T20:49:07.666Z,17.80
2023-01-17T20:51:34.519Z,17.82
2023-01-17T20:54:03.631Z,17.86
2023-01-17T20:56:34.497Z,17.87
2023-01-17T20:59:06.193Z,17.94
2023-01-17T21:01:34.439Z,17.99
2023-01-17T21:04:01.254Z,8.56
2023-01-17T21:06:27.761Z,5.58
2023-01-17T21:08:54.343Z,5.20
2023-01-17T21:11:23.222Z,4.48
2023-01-17T21:13:51.185Z,4.30
2023-01-17T21:16:20.336Z,4.18
2023-01-17T21:18:47.898Z,3.99
2023-01-17T21:21:17.761Z,4.04
2023-01-17T21:23:45.793Z,4.15
2023-01-17T21:26:14.782Z,3.81
2023-01-17T21:28:43.491Z,4.31
2023-01-17T21:31:28.576Z,4.20
2023-01-17T21:34:02.639Z,4.04
2023-01-17T21:36:32.692Z,4.01
2023-01-17T21:39:04.581Z,3.94
2023-01-17T21:41:34.077Z,4.14
2023-01-17T21:44:07.994Z,4.08
2023-01-17T21:46:40.764Z,4.18
2023-01-17T21:49:10.519Z,4.29
2023-01-17T21:51:52.676Z,4.07
2023-01-17T21:54:45.079Z,4.27
2023-01-17T21:57:33.339Z,4.29
2023-01-17T21:59:59.949Z,4.18
2023-01-17T22:02:26.530Z,4.05
2023-01-17T22:04:54.687Z,4.29
2023-01-17T22:07:21.406Z,4.40
2023-01-17T22:09:48.042Z,4.25
2023-01-17T22:12:14.702Z,4.27
2023-01-17T22:14:41.229Z,4.19
2023-01-17T22:17:08.548Z,4.59
2023-01-17T22:19:35.155Z,4.24
2023-01-17T22:22:01.866Z,4.16
2023-01-17T22:24:28.394Z,4.32
2023-01-17T22:26:54.993Z,4.31
2023-01-17T22:29:22.767Z,4.34
2023-01-17T22:31:49.358Z,4.34
2023-01-17T22:34:15.910Z,4.42
2023-01-17T22:36:42.462Z,4.39
2023-01-17T22:39:10.184Z,4.27
2023-01-17T22:41:38.418Z,4.34
2023-01-17T22:44:05.561Z,4.34
2023-01-17T22:46:33.793Z,4.29
2023-01-17T22:49:00.517Z,4.39
2023-01-17T22:51:28.361Z,4.60
2023-01-17T22:53:57.736Z,4.50
2023-01-17T22:56:31.879Z,4.37
2023-01-17T22:59:00.836Z,4.16
2023-01-17T23:01:32.660Z,4.05
2023-01-17T23:04:01.801Z,3.82
2023-01-17T23:06:34.332Z,3.76
2023-01-17T23:09:03.332Z,4.12
2023-01-17T23:11:43.226Z,3.95
2023-01-17T23:14:12.725Z,3.68
2023-01-17T23:17:07.917Z,3.95
2023-01-17T23:19:36.686Z,3.91
2023-01-17T23:22:20.046Z,3.71
2023-01-17T23:24:53.844Z,3.87
2023-01-17T23:27:45.273Z,3.73
2023-01-17T23:30:14.892Z,3.82
2023-01-17T23:33:00.991Z,3.67
2023-01-17T23:35:31.175Z,3.59
2023-01-17T23:38:17.093Z,3.57
2023-01-17T23:41:04.315Z,3.44
2023-01-17T23:43:31.834Z,3.37
2023-01-17T23:45:58.503Z,3.40
2023-01-17T23:48:28.169Z,3.39
2023-01-17T23:51:08.709Z,3.53
2023-01-17T23:53:37.446Z,3.49
2023-01-17T23:56:07.242Z,3.48
2023-01-17T23:58:34.137Z,3.48
